Time;durP1;ratioP1;P1;durP2;ratioP2;P2;SDS_P1;SDS_P2;PMS_P1;PMS_P2;Temp;Humidity;BMP_temperature;BMP_pressure;BME280_temperature;BME280_humidity;BME280_pressure;Samples;Min_cycle;Max_cycle;Signal;HPM_P1;HPM_P2
2024/01/10 14:55:55;;;;;;;;;;;-1.90;99.90;;;;;;5140028;27;19927;-94
2024/01/10 14:58:21;;;;;;;;;;;-3.00;99.90;;;;;;5110788;28;19994;-93
2024/01/10 15:00:46;;;;;;;;;;;-3.00;99.90;;;;;;5110819;28;20366;-92
2024/01/10 15:03:12;;;;;;;;;;;-2.90;99.90;;;;;;5110761;28;19999;-92
2024/01/10 15:05:40;;;;;;;;;;;-2.80;99.90;;;;;;5110721;28;19915;-92
2024/01/10 15:08:07;;;;;;;;;;;-2.80;99.90;;;;;;5110577;28;19908;-92
2024/01/10 15:10:33;;;;;;;;;;;-2.70;99.90;;;;;;5110630;28;19912;-93
2024/01/10 15:12:58;;;;;;;;;;;-2.60;99.90;;;;;;5110482;28;19908;-92
2024/01/10 15:15:24;;;;;;;;;;;-2.50;99.90;;;;;;5111726;28;19911;-92
2024/01/10 15:17:50;;;;;;;;;;;-2.40;99.90;;;;;;5110405;28;19915;-93
2024/01/10 15:20:15;;;;;;;;;;;-2.40;99.90;;;;;;5111962;28;19908;-93
2024/01/10 15:22:41;;;;;;;;;;;-2.30;99.90;;;;;;5111622;28;19915;-94
2024/01/10 15:25:07;;;;;;;;;;;-2.30;99.90;;;;;;5110330;28;20010;-92
2024/01/10 15:27:32;;;;;;;;;;;-2.20;99.90;;;;;;5116109;28;19911;-94
2024/01/10 15:29:58;;;;;;;;;;;-2.20;99.90;;;;;;5130773;28;19939;-93
2024/01/10 15:32:24;;;;;;;;;;;-2.10;99.90;;;;;;5130604;28;19908;-93
2024/01/10 15:34:49;;;;;;;;;;;-2.10;99.90;;;;;;5130580;28;19912;-91
2024/01/10 15:37:15;;;;;;;;;;;-2.10;99.90;;;;;;5130592;28;19911;-92
2024/01/10 15:39:41;;;;;;;;;;;-2.00;99.90;;;;;;5130541;28;19908;-94
2024/01/10 15:42:06;;;;;;;;;;;-2.00;99.90;;;;;;5130532;28;20325;-93
2024/01/10 15:44:32;;;;;;;;;;;-2.00;99.90;;;;;;5130515;28;20355;-93
2024/01/10 15:46:57;;;;;;;;;;;-2.00;99.90;;;;;;5131766;28;19908;-93
2024/01/10 15:49:23;;;;;;;;;;;-2.00;99.90;;;;;;5131928;28;20036;-93
2024/01/10 15:51:49;;;;;;;;;;;-1.90;99.90;;;;;;5130377;28;20252;-92
2024/01/10 15:54:15;;;;;;;;;;;-1.90;99.90;;;;;;5129982;28;19933;-93
2024/01/10 15:56:41;;;;;;;;;;;-1.90;99.90;;;;;;5109102;28;19918;-92
2024/01/10 15:59:06;;;;;;;;;;;-1.90;99.90;;;;;;5109641;28;19915;-94
2024/01/10 16:01:32;;;;;;;;;;;-1.90;99.90;;;;;;5109657;28;20268;-94
2024/01/10 16:03:58;;;;;;;;;;;-1.90;99.90;;;;;;5109605;28;19908;-92
2024/01/10 16:06:23;;;;;;;;;;;-1.90;99.90;;;;;;5100578;28;19916;-93
2024/01/10 16:08:49;;;;;;;;;;;-1.90;99.90;;;;;;5095977;28;19954;-91
2024/01/10 16:11:14;;;;;;;;;;;-1.90;99.90;;;;;;5095850;28;19974;-89
2024/01/10 16:13:40;;;;;;;;;;;-1.90;99.90;;;;;;5095777;28;20006;-90
2024/01/10 16:16:08;;;;;;;;;;;-1.90;99.90;;;;;;5097015;28;20279;-90
2024/01/10 16:18:37;;;;;;;;;;;-1.90;99.90;;;;;;5095686;28;19908;-89
2024/01/10 16:21:04;;;;;;;;;;;-1.90;99.90;;;;;;5095645;28;19912;-90
2024/01/10 16:23:30;;;;;;;;;;;-1.90;99.90;;;;;;5095592;28;19915;-89
2024/01/10 16:25:56;;;;;;;;;;;-1.90;99.90;;;;;;5095586;28;19908;-89
2024/01/10 16:28:22;;;;;;;;;;;-1.90;99.90;;;;;;5095548;28;20375;-88
2024/01/10 16:30:49;;;;;;;;;;;-1.90;99.90;;;;;;5096756;28;19908;-89
2024/01/10 16:33:14;;;;;;;;;;;-1.90;99.90;;;;;;5095477;28;19935;-93
2024/01/10 16:35:40;;;;;;;;;;;-1.90;99.90;;;;;;5095298;28;20016;-89
2024/01/10 16:38:06;;;;;;;;;;;-1.90;99.90;;;;;;5095316;28;20015;-91
2024/01/10 16:40:31;;;;;;;;;;;-1.90;99.90;;;;;;5095293;28;19915;-92
2024/01/10 16:42:56;;;;;;;;;;;-1.90;99.90;;;;;;5129445;27;19908;-93
2024/01/10 16:45:22;;;;;;;;;;;-1.90;99.90;;;;;;5095226;28;19916;-92
